createdAt,value
2019-03-03T00:00:34.396Z,5.30
2019-03-03T00:03:03.156Z,5.30
2019-03-03T00:05:31.889Z,5.60
2019-03-03T00:08:01.168Z,5.30
2019-03-03T00:10:31.414Z,5.30
2019-03-03T00:13:00.673Z,5.30
2019-03-03T00:15:29.998Z,5.40
2019-03-03T00:17:59.193Z,5.10
2019-03-03T00:20:28.348Z,5.30
2019-03-03T00:22:57.262Z,5.30
2019-03-03T00:25:26.583Z,5.30
2019-03-03T00:27:55.883Z,4.90
2019-03-03T00:30:25.245Z,4.80
2019-03-03T00:32:54.266Z,4.80
2019-03-03T00:35:23.624Z,4.80
2019-03-03T00:38:10.385Z,4.50
2019-03-03T00:40:40.531Z,4.70
2019-03-03T00:43:21.213Z,4.70
2019-03-03T00:46:08.010Z,4.80
2019-03-03T00:48:38.293Z,4.50
2019-03-03T00:51:15.491Z,4.50
2019-03-03T00:54:04.710Z,4.40
2019-03-03T00:56:41.175Z,4.50
2019-03-03T00:59:21.139Z,4.70
2019-03-03T01:01:54.607Z,4.20
2019-03-03T01:04:42.333Z,4.70
2019-03-03T01:07:22.349Z,4.30
2019-03-03T01:09:57.112Z,4.10
2019-03-03T01:12:38.816Z,4.10
2019-03-03T01:15:11.378Z,4.10
2019-03-03T01:17:59.231Z,4.20
2019-03-03T01:20:39.385Z,3.90
2019-03-03T01:23:26.693Z,4.00
2019-03-03T01:25:55.993Z,4.10
2019-03-03T01:28:24.754Z,3.60
2019-03-03T01:30:53.567Z,3.70
2019-03-03T01:33:22.447Z,3.50
2019-03-03T01:35:51.665Z,3.30
2019-03-03T01:38:20.879Z,3.40
2019-03-03T01:40:50.186Z,3.50
2019-03-03T01:43:19.460Z,3.00
2019-03-03T01:45:48.744Z,3.00
2019-03-03T01:48:17.837Z,2.70
2019-03-03T01:50:46.985Z,2.80
2019-03-03T01:53:16.096Z,2.70
2019-03-03T01:55:45.733Z,2.70
2019-03-03T01:58:14.756Z,2.60
2019-03-03T02:00:44.972Z,2.70
2019-03-03T02:03:14.352Z,2.50
2019-03-03T02:05:43.825Z,2.30
2019-03-03T02:08:13.089Z,2.30
2019-03-03T02:10:42.759Z,2.40
2019-03-03T02:13:11.988Z,2.20
2019-03-03T02:15:41.559Z,2.00
2019-03-03T02:18:10.660Z,1.90
2019-03-03T02:20:39.817Z,2.00
2019-03-03T02:23:09.108Z,1.70
2019-03-03T02:25:38.712Z,1.70
2019-03-03T02:28:09.413Z,1.70
2019-03-03T02:30:39.715Z,1.70
2019-03-03T02:33:08.746Z,1.70
2019-03-03T02:35:37.504Z,1.80
2019-03-03T02:38:06.296Z,1.50
2019-03-03T02:40:36.605Z,1.30
2019-03-03T02:43:06.766Z,1.50
2019-03-03T02:45:36.363Z,1.40
2019-03-03T02:48:08.024Z,1.60
2019-03-03T02:50:42.199Z,1.10
2019-03-03T02:53:13.345Z,1.30
2019-03-03T02:55:45.951Z,1.30
2019-03-03T02:58:15.066Z,1.20
2019-03-03T03:00:46.442Z,1.00
2019-03-03T03:03:18.200Z,1.20
2019-03-03T03:05:55.380Z,1.00
2019-03-03T03:08:26.095Z,1.00
2019-03-03T03:10:56.569Z,1.10
2019-03-03T03:13:33.243Z,0.80
2019-03-03T03:16:20.051Z,1.10
2019-03-03T03:18:50.836Z,1.00
2019-03-03T03:21:21.377Z,1.00
2019-03-03T03:23:54.982Z,1.00
2019-03-03T03:26:28.218Z,1.00
2019-03-03T03:29:15.619Z,1.00
2019-03-03T03:32:02.740Z,1.00
2019-03-03T03:34:37.037Z,1.00
2019-03-03T03:37:23.614Z,1.00
2019-03-03T03:39:55.190Z,1.00
2019-03-03T03:42:41.367Z,1.00
2019-03-03T03:45:28.774Z,1.00
2019-03-03T03:48:04.656Z,0.90
2019-03-03T03:50:41.383Z,0.90
2019-03-03T03:53:18.023Z,1.00
2019-03-03T03:56:03.583Z,1.00
2019-03-03T03:58:34.403Z,1.00
2019-03-03T04:01:14.383Z,0.80
2019-03-03T04:03:45.174Z,0.40
2019-03-03T04:06:16.068Z,0.80
2019-03-03T04:08:56.139Z,0.50
2019-03-03T04:11:34.727Z,0.60
2019-03-03T04:14:08.462Z,0.40
2019-03-03T04:16:55.344Z,0.80
2019-03-03T04:19:32.117Z,0.60
2019-03-03T04:22:18.828Z,0.60
2019-03-03T04:25:01.070Z,0.70
2019-03-03T04:27:36.920Z,0.70
2019-03-03T04:30:09.599Z,0.70
2019-03-03T04:32:40.286Z,0.30
2019-03-03T04:35:11.001Z,0.50
2019-03-03T04:37:57.276Z,0.50
2019-03-03T04:40:43.264Z,0.40
2019-03-03T04:43:16.793Z,0.20
2019-03-03T04:45:53.363Z,0.20
2019-03-03T04:48:24.253Z,0.20
2019-03-03T04:50:58.590Z,0.50
2019-03-03T04:53:29.384Z,0.40
2019-03-03T04:56:00.248Z,0.20
2019-03-03T04:58:49.624Z,0.50
2019-03-03T05:01:21.624Z,0.50
2019-03-03T05:04:01.355Z,0.20
2019-03-03T05:06:32.256Z,0.20
2019-03-03T05:09:02.979Z,0.20
2019-03-03T05:12:11.824Z,0.50
2019-03-03T05:14:42.060Z,0.20
2019-03-03T05:17:15.293Z,0.50
2019-03-03T05:19:45.954Z,0.00
2019-03-03T05:22:15.214Z,0.30
2019-03-03T05:24:44.381Z,0.00
2019-03-03T05:27:13.675Z,0.40
2019-03-03T05:29:42.846Z,0.00
2019-03-03T05:32:12.037Z,0.20
2019-03-03T05:34:41.420Z,0.10
2019-03-03T05:37:10.478Z,0.10
2019-03-03T05:39:40.851Z,0.00
2019-03-03T05:42:10.368Z,0.20
2019-03-03T05:44:39.567Z,0.40
2019-03-03T05:47:09.914Z,0.20
2019-03-03T05:49:38.705Z,0.50
2019-03-03T05:52:07.849Z,0.60
2019-03-03T05:54:36.729Z,0.50
2019-03-03T05:57:05.501Z,0.60
2019-03-03T05:59:34.032Z,0.60
2019-03-03T06:02:03.521Z,0.80
2019-03-03T06:04:32.528Z,0.60
2019-03-03T06:07:02.684Z,1.00
2019-03-03T06:09:31.567Z,1.00
2019-03-03T06:12:01.731Z,1.00
2019-03-03T06:14:31.112Z,1.00
2019-03-03T06:17:00.504Z,0.60
2019-03-03T06:19:29.419Z,0.70
2019-03-03T06:21:58.570Z,1.00
2019-03-03T06:24:28.107Z,0.80
2019-03-03T06:26:57.221Z,0.40
2019-03-03T06:29:26.710Z,0.50
2019-03-03T06:31:56.959Z,0.40
2019-03-03T06:34:26.404Z,0.20
2019-03-03T06:36:54.945Z,0.40
2019-03-03T06:39:23.513Z,0.20
2019-03-03T06:41:52.127Z,0.20
2019-03-03T06:44:21.587Z,0.20
2019-03-03T06:46:51.127Z,0.20
2019-03-03T06:49:20.345Z,0.20
2019-03-03T06:51:49.834Z,-0.10
2019-03-03T06:54:19.577Z,0.20
2019-03-03T06:56:48.700Z,-0.10
2019-03-03T06:59:18.818Z,-0.10
2019-03-03T07:01:48.014Z,0.00
2019-03-03T07:04:17.238Z,0.30
2019-03-03T07:06:46.602Z,-0.10
2019-03-03T07:09:15.965Z,0.00
2019-03-03T07:11:45.336Z,-0.10
2019-03-03T07:14:16.003Z,0.30
2019-03-03T07:16:45.409Z,0.30
2019-03-03T07:19:14.587Z,-0.10
2019-03-03T07:21:44.013Z,-0.10
2019-03-03T07:24:13.393Z,0.30
2019-03-03T07:26:41.911Z,0.00
2019-03-03T07:29:10.424Z,0.50
2019-03-03T07:31:39.562Z,-0.10
2019-03-03T07:34:08.577Z,-0.10
2019-03-03T07:36:37.806Z,0.00
2019-03-03T07:39:15.211Z,0.10
2019-03-03T07:41:44.603Z,0.00
2019-03-03T07:44:13.757Z,-0.10
2019-03-03T07:46:43.473Z,0.00
2019-03-03T07:49:13.297Z,-0.10
2019-03-03T07:51:42.635Z,-0.10
2019-03-03T07:54:12.125Z,0.30
2019-03-03T07:56:41.415Z,-0.10
2019-03-03T07:59:10.750Z,-0.10
2019-03-03T08:01:39.843Z,-0.10
2019-03-03T08:04:08.421Z,-0.10
2019-03-03T08:06:36.975Z,-0.30
2019-03-03T08:09:06.616Z,0.00
2019-03-03T08:11:35.234Z,-0.30
2019-03-03T08:14:04.704Z,-0.30
2019-03-03T08:16:34.036Z,-0.30
2019-03-03T08:19:03.159Z,-0.30
2019-03-03T08:21:33.360Z,-0.10
2019-03-03T08:24:02.723Z,-0.20
2019-03-03T08:26:32.148Z,-0.30
2019-03-03T08:29:01.386Z,-0.30
2019-03-03T08:31:30.522Z,-0.30
2019-03-03T08:33:59.610Z,-0.30
2019-03-03T08:36:29.293Z,0.00
2019-03-03T08:38:58.486Z,-0.30
2019-03-03T08:41:27.473Z,-0.30
2019-03-03T08:43:58.268Z,-0.30
2019-03-03T08:46:37.570Z,-0.30
2019-03-03T08:49:08.815Z,-0.30
2019-03-03T08:51:54.806Z,-0.30
2019-03-03T08:54:28.540Z,-0.20
2019-03-03T08:57:13.978Z,-0.20
2019-03-03T08:59:44.755Z,-0.20
2019-03-03T09:02:31.980Z,-0.30
2019-03-03T09:05:02.705Z,-0.30
2019-03-03T09:07:42.343Z,-0.30
2019-03-03T09:10:13.205Z,-0.50
2019-03-03T09:12:46.798Z,-0.30
2019-03-03T09:15:23.357Z,-0.30
2019-03-03T09:18:10.372Z,-0.30
2019-03-03T09:20:50.535Z,-0.30
2019-03-03T09:23:33.561Z,-0.20
2019-03-03T09:26:04.210Z,-0.30
2019-03-03T09:28:43.521Z,-0.30
2019-03-03T09:31:33.209Z,-0.30
2019-03-03T09:34:19.504Z,-0.30
2019-03-03T09:36:50.629Z,0.00
2019-03-03T09:39:21.476Z,-0.10
2019-03-03T09:42:09.701Z,-0.30
2019-03-03T09:44:40.669Z,-0.30
2019-03-03T09:47:23.251Z,-0.30
2019-03-03T09:49:54.412Z,-0.30
2019-03-03T09:52:40.705Z,-0.30
2019-03-03T09:55:20.450Z,-0.10
2019-03-03T09:57:54.460Z,-0.10
2019-03-03T10:00:41.168Z,-0.10
2019-03-03T10:03:12.185Z,0.00
2019-03-03T10:05:52.521Z,-0.10
2019-03-03T10:08:32.525Z,0.50
2019-03-03T10:11:06.315Z,0.00
2019-03-03T10:13:40.144Z,0.50
2019-03-03T10:16:11.292Z,0.20
2019-03-03T10:18:47.291Z,0.50
2019-03-03T10:21:17.616Z,0.10
2019-03-03T10:23:56.918Z,0.30
2019-03-03T10:26:43.568Z,0.20
2019-03-03T10:29:14.404Z,0.30
2019-03-03T10:31:45.363Z,0.20
2019-03-03T10:34:16.404Z,0.20
2019-03-03T10:36:53.049Z,0.40
2019-03-03T10:39:24.222Z,0.20
2019-03-03T10:41:58.143Z,0.40
2019-03-03T10:44:37.524Z,0.20
2019-03-03T10:47:25.312Z,0.30
2019-03-03T10:50:02.254Z,-0.10
2019-03-03T10:52:39.658Z,0.00
2019-03-03T10:55:14.076Z,0.10
2019-03-03T10:57:44.835Z,0.00
2019-03-03T11:00:29.221Z,0.10
2019-03-03T11:03:16.143Z,0.50
2019-03-03T11:06:01.937Z,-0.10
2019-03-03T11:08:38.333Z,0.00
2019-03-03T11:11:25.036Z,-0.10
2019-03-03T11:13:58.395Z,-0.10
2019-03-03T11:16:29.278Z,0.00
2019-03-03T11:19:03.839Z,-0.10
2019-03-03T11:21:37.816Z,0.20
2019-03-03T11:24:09.519Z,-0.10
2019-03-03T11:26:43.269Z,-0.30
2019-03-03T11:29:23.161Z,-0.30
2019-03-03T11:31:54.449Z,-0.20
2019-03-03T11:34:34.602Z,-0.20
2019-03-03T11:37:14.027Z,-0.20
2019-03-03T11:39:44.463Z,-0.20
2019-03-03T11:42:15.214Z,-0.20
2019-03-03T11:44:45.501Z,-0.40
2019-03-03T11:47:22.913Z,-0.30
2019-03-03T11:50:02.184Z,-0.30
2019-03-03T11:52:32.991Z,-0.30
2019-03-03T11:55:06.433Z,0.20
2019-03-03T11:57:43.060Z,-0.10
2019-03-03T12:00:26.160Z,-0.10
2019-03-03T12:02:57.153Z,0.00
2019-03-03T12:05:45.207Z,-0.10
2019-03-03T12:08:19.095Z,-0.10
2019-03-03T12:11:06.873Z,-0.10
2019-03-03T12:13:40.463Z,0.00
2019-03-03T12:16:27.723Z,-0.10
2019-03-03T12:19:07.671Z,0.00
2019-03-03T12:21:48.218Z,-0.10
2019-03-03T12:24:19.231Z,-0.10
2019-03-03T12:26:52.835Z,0.00
2019-03-03T12:29:32.045Z,-0.10
2019-03-03T12:32:02.829Z,0.00
2019-03-03T12:34:49.983Z,0.20
2019-03-03T12:37:35.111Z,0.00
2019-03-03T12:40:07.352Z,-0.10
2019-03-03T12:42:53.777Z,0.00
2019-03-03T12:45:33.324Z,-0.10
2019-03-03T12:48:07.646Z,0.00
2019-03-03T12:50:56.890Z,-0.10
2019-03-03T12:53:28.834Z,-0.10
2019-03-03T12:55:59.560Z,-0.10
2019-03-03T12:58:36.375Z,0.00
2019-03-03T13:01:10.204Z,-0.10
2019-03-03T13:03:58.350Z,0.00
2019-03-03T13:06:38.290Z,0.00
2019-03-03T13:09:09.206Z,-0.10
2019-03-03T13:11:43.371Z,-0.10
2019-03-03T13:14:17.132Z,-0.20
2019-03-03T13:16:48.393Z,-0.20
2019-03-03T13:19:35.645Z,-0.30
2019-03-03T13:22:06.687Z,0.20
2019-03-03T13:24:43.994Z,0.20
2019-03-03T13:27:34.494Z,0.00
2019-03-03T13:30:12.433Z,-0.30
2019-03-03T13:32:44.026Z,-0.30
2019-03-03T13:35:14.947Z,-0.30
2019-03-03T13:37:51.598Z,-0.30
2019-03-03T13:40:32.235Z,-0.30
2019-03-03T13:43:01.692Z,-0.40
2019-03-03T13:45:31.801Z,-0.10
2019-03-03T13:48:01.490Z,-0.30
2019-03-03T13:50:30.537Z,-0.40
2019-03-03T13:52:59.877Z,-0.30
2019-03-03T13:55:29.817Z,-0.30
2019-03-03T13:57:58.725Z,-0.30
2019-03-03T14:00:27.477Z,-0.30
2019-03-03T14:02:56.623Z,-0.30
2019-03-03T14:05:25.485Z,-0.50
2019-03-03T14:07:54.208Z,-0.20
2019-03-03T14:10:23.442Z,-0.50
2019-03-03T14:12:52.726Z,-0.30
2019-03-03T14:15:21.879Z,-0.50
2019-03-03T14:17:51.200Z,-0.50
2019-03-03T14:20:22.604Z,-0.50
2019-03-03T14:22:53.077Z,-0.50
2019-03-03T14:25:22.298Z,-0.50
2019-03-03T14:27:51.357Z,-0.50
2019-03-03T14:30:27.453Z,-0.50
2019-03-03T14:32:56.277Z,-0.50
2019-03-03T14:35:25.566Z,-0.50
2019-03-03T14:37:54.949Z,-0.70
2019-03-03T14:40:24.264Z,-0.70
2019-03-03T14:42:52.935Z,-0.70
2019-03-03T14:45:21.688Z,-0.70
2019-03-03T14:47:50.357Z,-0.70
2019-03-03T14:50:20.996Z,-0.50
2019-03-03T14:52:53.666Z,-0.50
2019-03-03T14:55:22.900Z,-0.70
2019-03-03T14:57:53.234Z,-0.70
2019-03-03T15:00:32.969Z,-0.70
2019-03-03T15:03:05.578Z,-0.70
2019-03-03T15:05:34.979Z,-0.60
2019-03-03T15:08:04.557Z,-0.80
2019-03-03T15:10:33.774Z,-0.80
2019-03-03T15:13:03.245Z,-0.80
2019-03-03T15:15:37.493Z,-0.50
2019-03-03T15:18:06.812Z,-0.70
2019-03-03T15:20:36.366Z,-0.70
2019-03-03T15:23:05.989Z,-0.40
2019-03-03T15:25:35.329Z,-0.30
2019-03-03T15:28:05.299Z,-0.50
2019-03-03T15:30:34.950Z,-0.60
2019-03-03T15:33:03.919Z,-0.60
2019-03-03T15:35:32.973Z,-0.60
2019-03-03T15:38:02.144Z,-0.40
2019-03-03T15:40:31.720Z,-0.30
2019-03-03T15:43:00.735Z,-0.30
2019-03-03T15:45:31.301Z,-0.30
2019-03-03T15:48:00.685Z,-0.30
2019-03-03T15:50:30.003Z,-0.30
2019-03-03T15:52:58.973Z,-0.10
2019-03-03T15:55:29.942Z,-0.10
2019-03-03T15:57:59.255Z,0.20
2019-03-03T16:00:33.026Z,0.20
2019-03-03T16:03:01.963Z,0.20
2019-03-03T16:05:30.929Z,0.40
2019-03-03T16:08:01.399Z,1.20
2019-03-03T16:10:32.438Z,1.40
2019-03-03T16:13:03.675Z,2.00
2019-03-03T16:15:32.130Z,2.20
2019-03-03T16:18:00.792Z,2.80
2019-03-03T16:20:29.367Z,3.00
2019-03-03T16:22:58.839Z,3.40
2019-03-03T16:25:28.209Z,3.00
2019-03-03T16:27:57.425Z,3.00
2019-03-03T16:30:26.609Z,3.20
2019-03-03T16:32:56.020Z,2.80
2019-03-03T16:35:25.394Z,2.20
2019-03-03T16:37:55.515Z,1.70
2019-03-03T16:40:25.384Z,1.30
2019-03-03T16:42:54.611Z,1.30
2019-03-03T16:45:23.952Z,1.30
2019-03-03T16:47:53.237Z,1.30
2019-03-03T16:50:23.126Z,1.00
2019-03-03T16:52:52.254Z,0.90
2019-03-03T16:55:21.385Z,1.00
2019-03-03T16:57:50.202Z,1.20
2019-03-03T17:00:20.750Z,2.00
2019-03-03T17:02:49.565Z,2.50
2019-03-03T17:05:19.899Z,3.20
2019-03-03T17:07:49.503Z,3.50
2019-03-03T17:10:18.658Z,3.70
2019-03-03T17:12:48.575Z,3.70
2019-03-03T17:15:22.264Z,4.10
2019-03-03T17:17:51.574Z,4.20
2019-03-03T17:20:20.574Z,4.20
2019-03-03T17:22:49.731Z,4.70
2019-03-03T17:25:21.554Z,5.30
2019-03-03T17:27:50.899Z,5.40
2019-03-03T17:30:25.344Z,5.10
2019-03-03T17:32:54.430Z,5.10
2019-03-03T17:35:23.369Z,4.70
2019-03-03T17:37:52.104Z,4.20
2019-03-03T17:40:24.762Z,4.20
2019-03-03T17:42:53.585Z,3.90
2019-03-03T17:45:23.169Z,3.50
2019-03-03T17:47:52.169Z,3.70
2019-03-03T17:50:22.735Z,4.60
2019-03-03T17:52:52.454Z,5.00
2019-03-03T17:55:21.724Z,4.60
2019-03-03T17:57:50.818Z,4.20
2019-03-03T18:00:26.058Z,4.40
2019-03-03T18:02:55.925Z,4.10
2019-03-03T18:05:25.053Z,4.30
2019-03-03T18:07:54.461Z,4.00
2019-03-03T18:10:24.028Z,4.10
2019-03-03T18:12:53.173Z,5.00
2019-03-03T18:15:22.988Z,5.50
2019-03-03T18:17:52.178Z,5.90
2019-03-03T18:20:24.371Z,6.20
2019-03-03T18:22:53.708Z,6.00
2019-03-03T18:25:22.616Z,5.70
2019-03-03T18:27:51.491Z,5.60
2019-03-03T18:30:30.501Z,5.70
2019-03-03T18:32:59.284Z,5.70
2019-03-03T18:35:28.518Z,5.70
2019-03-03T18:37:57.794Z,5.40
2019-03-03T18:40:27.103Z,4.40
2019-03-03T18:42:56.386Z,4.10
2019-03-03T18:45:25.816Z,3.70
2019-03-03T18:47:55.443Z,3.60
2019-03-03T18:50:31.371Z,3.60
2019-03-03T18:53:00.480Z,3.90
2019-03-03T18:55:29.848Z,3.70
2019-03-03T18:57:58.988Z,4.10
2019-03-03T19:00:31.540Z,4.10
2019-03-03T19:03:01.089Z,5.00
2019-03-03T19:05:30.730Z,5.30
2019-03-03T19:08:00.304Z,5.70
2019-03-03T19:10:33.799Z,5.20
2019-03-03T19:13:02.528Z,5.20
2019-03-03T19:15:33.319Z,5.60
2019-03-03T19:18:02.014Z,5.60
2019-03-03T19:20:31.713Z,5.80
2019-03-03T19:23:01.005Z,5.70
2019-03-03T19:25:30.764Z,5.30
2019-03-03T19:27:59.976Z,5.00
2019-03-03T19:30:30.609Z,4.40
2019-03-03T19:33:15.046Z,4.40
2019-03-03T19:35:44.318Z,4.30
2019-03-03T19:38:13.795Z,4.60
2019-03-03T19:40:43.184Z,4.30
2019-03-03T19:43:12.383Z,4.70
2019-03-03T19:45:43.389Z,4.50
2019-03-03T19:48:12.648Z,4.70
2019-03-03T19:50:41.714Z,4.70
2019-03-03T19:53:10.378Z,4.00
2019-03-03T19:55:39.164Z,3.90
2019-03-03T19:58:08.250Z,4.10
2019-03-03T20:00:39.430Z,4.70
2019-03-03T20:03:09.146Z,4.70
2019-03-03T20:05:39.160Z,5.30
2019-03-03T20:08:08.637Z,5.50
2019-03-03T20:10:38.624Z,5.50
2019-03-03T20:13:07.648Z,5.50
2019-03-03T20:15:36.726Z,5.30
2019-03-03T20:18:07.804Z,4.80
2019-03-03T20:20:37.730Z,4.70
2019-03-03T20:23:06.902Z,4.40
2019-03-03T20:25:36.106Z,3.90
2019-03-03T20:28:06.377Z,3.80
2019-03-03T20:30:35.588Z,3.80
2019-03-03T20:33:05.224Z,3.90
2019-03-03T20:35:34.725Z,3.90
2019-03-03T20:38:04.029Z,3.80
2019-03-03T20:40:34.120Z,3.50
2019-03-03T20:43:03.623Z,3.50
2019-03-03T20:45:33.738Z,3.50
2019-03-03T20:48:03.003Z,3.50
2019-03-03T20:50:33.149Z,3.50
2019-03-03T20:53:03.159Z,3.80
2019-03-03T20:55:35.602Z,3.50
2019-03-03T20:58:04.934Z,3.50
2019-03-03T21:00:34.676Z,3.80
2019-03-03T21:03:03.850Z,3.80
2019-03-03T21:05:33.022Z,3.50
2019-03-03T21:08:02.462Z,3.80
2019-03-03T21:10:33.506Z,3.50
2019-03-03T21:13:02.738Z,3.60
2019-03-03T21:15:32.099Z,3.80
2019-03-03T21:18:01.449Z,3.60
2019-03-03T21:20:30.478Z,3.50
2019-03-03T21:22:59.307Z,3.80
2019-03-03T21:25:28.969Z,3.50
2019-03-03T21:27:57.726Z,3.60
2019-03-03T21:30:27.563Z,3.60
2019-03-03T21:32:58.060Z,3.70
2019-03-03T21:35:27.361Z,3.60
2019-03-03T21:37:58.805Z,3.70
2019-03-03T21:40:27.722Z,3.60
2019-03-03T21:42:57.263Z,3.70
2019-03-03T21:45:27.249Z,3.50
2019-03-03T21:47:57.845Z,3.50
2019-03-03T21:50:29.857Z,3.50
2019-03-03T21:52:58.942Z,3.50
2019-03-03T21:55:28.017Z,3.50
2019-03-03T21:57:57.167Z,3.50
2019-03-03T22:00:32.694Z,3.80
2019-03-03T22:03:02.227Z,3.50
2019-03-03T22:05:31.427Z,3.60
2019-03-03T22:08:00.936Z,3.70
2019-03-03T22:10:29.681Z,3.60
2019-03-03T22:12:59.530Z,3.70
2019-03-03T22:15:28.267Z,3.70
2019-03-03T22:17:57.694Z,3.90
2019-03-03T22:20:27.170Z,3.90
2019-03-03T22:22:57.024Z,3.80
2019-03-03T22:25:26.418Z,3.50
2019-03-03T22:27:55.538Z,3.80
2019-03-03T22:30:25.356Z,3.60
2019-03-03T22:32:54.695Z,3.80
2019-03-03T22:35:24.303Z,3.50
2019-03-03T22:37:53.559Z,3.60
2019-03-03T22:40:23.614Z,3.70
2019-03-03T22:42:52.798Z,3.60
2019-03-03T22:45:22.675Z,3.70
2019-03-03T22:47:51.385Z,3.50
2019-03-03T22:50:20.821Z,3.60
2019-03-03T22:52:49.526Z,3.30
2019-03-03T22:55:19.642Z,3.30
2019-03-03T22:57:48.453Z,3.50
2019-03-03T23:00:45.374Z,3.30
2019-03-03T23:03:23.118Z,3.30
2019-03-03T23:06:09.784Z,3.30
2019-03-03T23:08:56.922Z,3.30
2019-03-03T23:11:29.812Z,3.70
2019-03-03T23:14:21.529Z,3.50
2019-03-03T23:17:19.619Z,3.80
2019-03-03T23:19:57.842Z,3.50
2019-03-03T23:22:46.822Z,3.40
2019-03-03T23:25:24.919Z,3.30
2019-03-03T23:27:54.506Z,3.40
2019-03-03T23:30:23.916Z,3.10
2019-03-03T23:32:53.291Z,3.40
2019-03-03T23:35:22.683Z,3.00
2019-03-03T23:37:51.564Z,3.00
2019-03-03T23:40:21.281Z,3.20
2019-03-03T23:42:50.174Z,3.10
2019-03-03T23:45:20.294Z,3.00
2019-03-03T23:47:49.651Z,2.80
2019-03-03T23:50:20.079Z,2.70
2019-03-03T23:52:49.423Z,2.80
2019-03-03T23:55:18.512Z,2.80
2019-03-03T23:57:47.805Z,2.70
